Quick Links (Output Below):   Max & Min Temps   /   Climate Reports   /   Zone Forecasts
River Forecasts   /   Forestry Forecasts   /   Aviation Forecasts   /   Radars   /   Features

Terminal Aerodrome Forecast (Hot Springs)

Pick a Site:
Arkadelphia | El Dorado | Fayetteville | Fort Smith | Harrison | Highfill | Hot Springs | Jonesboro
Little Rock | Monticello | Mountain Home | Pine Bluff | Texarkana
 Forecast 

KHOT 302335Z 0100/0124 17003KT P6SM FEW050 BKN250
     FM010300 VRB03KT P6SM FEW050 BKN250
     FM011500 02004KT P6SM SCT050 BKN250
     FM011800 03006KT P6SM VCTS SCT050CB SCT100 BKN250=


 Latest METARs (Observations) 
How to Decode METARs
02Z KHOT 010153Z AUTO 00000KT 10SM CLR 28/20 A2996 RMK AO2 SLP137
         T02830200
         
01Z KHOT 010053Z AUTO 00000KT 10SM CLR 30/19 A2996 RMK AO2 SLP138
         T03000189
         
00Z KHOT 302353Z AUTO 19005KT 10SM CLR 31/18 A2995 RMK AO2 SLP136
         T03110183 10322 20294 56012
         
***** Today's Observations (Above) *****


23Z KHOT 302253Z AUTO 19003KT 10SM CLR 31/19 A2996 RMK AO2 SLP137
         T03110194
         
22Z KHOT 302153Z AUTO VRB03KT 10SM CLR 32/19 A2998 RMK AO2 SLP144
         T03220189
         
21Z KHOT 302053Z AUTO VRB06KT 10SM CLR 32/19 A2999 RMK AO2 SLP148
         T03170194 58015
         
20Z KHOT 301953Z AUTO 18006KT 10SM CLR 32/19 A3000 RMK AO2 SLP153
         T03170194
         
19Z KHOT 301853Z AUTO VRB04KT 10SM CLR 31/20 A3002 RMK AO2 SLP159
         T03110200
         
18Z KHOT 301753Z AUTO 24004KT 10SM CLR 30/19 A3003 RMK AO2 SLP162
         60000 T03000194 10306 20200 58011
         
17Z KHOT 301653Z AUTO VRB03KT 10SM CLR 29/19 A3005 RMK AO2 RAB37E47
         SLP167 P0000 T02890189
         
***** Yesterday's Observations (Above) *****


Back to Main Page
http://www.srh.noaa.gov/lzk/qfcst.php

USA.gov is the U.S. government's official web portal to all federal, state and local government web resources and services.